createdAt,value
2022-11-17T00:02:30.122Z,85.60
2022-11-17T00:06:12.169Z,85.60
2022-11-17T00:09:53.856Z,85.60
2022-11-17T00:13:54.530Z,85.50
2022-11-17T00:17:36.269Z,85.50
2022-11-17T00:21:19.000Z,85.50
2022-11-17T00:25:00.762Z,85.50
2022-11-17T00:28:42.522Z,85.60
2022-11-17T00:32:43.079Z,85.60
2022-11-17T00:36:26.033Z,85.60
2022-11-17T00:40:08.128Z,85.60
2022-11-17T00:43:49.812Z,85.50
2022-11-17T00:47:35.448Z,85.60
2022-11-17T00:51:17.332Z,85.60
2022-11-17T00:54:59.057Z,85.60
2022-11-17T00:58:41.253Z,85.60
2022-11-17T01:02:23.051Z,85.60
2022-11-17T01:06:13.323Z,85.70
2022-11-17T01:09:55.028Z,85.80
2022-11-17T01:13:38.330Z,85.80
2022-11-17T01:17:20.472Z,85.80
2022-11-17T01:21:10.459Z,85.80
2022-11-17T01:24:52.196Z,85.80
2022-11-17T01:28:34.406Z,85.80
2022-11-17T01:32:16.159Z,85.80
2022-11-17T01:36:03.425Z,85.70
2022-11-17T01:39:45.642Z,85.70
2022-11-17T01:43:46.551Z,85.70
2022-11-17T01:47:49.326Z,85.80
2022-11-17T01:51:34.678Z,85.80
2022-11-17T01:55:18.085Z,85.70
2022-11-17T01:59:10.004Z,85.70
2022-11-17T02:02:52.832Z,85.70
2022-11-17T02:06:36.191Z,85.70
2022-11-17T02:10:18.157Z,85.60
2022-11-17T02:13:59.899Z,85.70
2022-11-17T02:17:42.908Z,85.60
2022-11-17T02:22:01.837Z,85.70
2022-11-17T02:26:17.552Z,85.80
2022-11-17T02:30:05.880Z,85.70
2022-11-17T02:34:12.182Z,85.70
2022-11-17T02:38:09.135Z,85.70
2022-11-17T02:41:58.361Z,85.70
2022-11-17T02:45:58.156Z,85.60
2022-11-17T02:49:47.694Z,85.60
2022-11-17T02:53:30.381Z,85.60
2022-11-17T02:57:32.102Z,85.60
2022-11-17T03:01:28.227Z,85.60
2022-11-17T03:05:22.330Z,85.60
2022-11-17T03:09:29.556Z,85.50
2022-11-17T03:13:42.553Z,85.40
2022-11-17T03:17:36.824Z,85.30
2022-11-17T03:21:27.633Z,85.20
2022-11-17T03:25:14.796Z,85.30
2022-11-17T03:28:57.682Z,85.30
2022-11-17T03:32:44.777Z,85.20
2022-11-17T03:36:32.798Z,85.30
2022-11-17T03:40:19.542Z,85.30
2022-11-17T03:44:03.498Z,85.20
2022-11-17T03:47:46.706Z,85.30
2022-11-17T03:51:31.423Z,85.20
2022-11-17T03:55:13.885Z,85.20
2022-11-17T03:59:01.803Z,85.30
2022-11-17T04:02:45.877Z,85.20
2022-11-17T04:06:27.604Z,84.90
2022-11-17T04:10:14.966Z,84.90
2022-11-17T04:14:15.607Z,85.00
2022-11-17T04:17:58.004Z,85.10
2022-11-17T04:21:39.752Z,85.00
2022-11-17T04:25:41.445Z,84.90
2022-11-17T04:29:23.157Z,84.90
2022-11-17T04:33:04.860Z,84.70
2022-11-17T04:36:46.871Z,84.70
2022-11-17T04:40:28.565Z,84.70
2022-11-17T04:44:13.128Z,84.80
2022-11-17T04:47:54.798Z,84.90
2022-11-17T04:51:36.841Z,84.80
2022-11-17T04:55:18.552Z,84.90
2022-11-17T04:59:00.293Z,84.80
2022-11-17T05:02:42.086Z,84.70
2022-11-17T05:06:35.825Z,84.50
2022-11-17T05:10:37.569Z,84.50
2022-11-17T05:14:21.203Z,84.50
2022-11-17T05:18:02.889Z,84.80
2022-11-17T05:21:44.632Z,84.70
2022-11-17T05:25:26.316Z,84.80
2022-11-17T05:29:10.207Z,84.80
2022-11-17T05:32:51.897Z,84.70
2022-11-17T05:36:34.449Z,84.70
2022-11-17T05:40:16.198Z,84.70
2022-11-17T05:43:58.369Z,84.60
2022-11-17T05:47:40.058Z,84.60
2022-11-17T05:51:23.981Z,84.60
2022-11-17T05:55:06.266Z,84.60
2022-11-17T05:58:52.939Z,84.60
2022-11-17T06:02:47.553Z,84.60
2022-11-17T06:06:30.145Z,84.60
2022-11-17T06:10:11.867Z,84.60
2022-11-17T06:13:53.596Z,84.80
2022-11-17T06:17:40.691Z,84.80
2022-11-17T06:21:22.648Z,84.80
2022-11-17T06:25:08.101Z,84.80
2022-11-17T06:28:51.286Z,84.70
2022-11-17T06:32:36.348Z,84.80
2022-11-17T06:36:18.139Z,84.70
2022-11-17T06:39:59.901Z,84.70
2022-11-17T06:43:41.868Z,84.70
2022-11-17T06:47:23.551Z,84.60
2022-11-17T06:51:06.143Z,84.60
2022-11-17T06:54:47.888Z,84.50
2022-11-17T06:58:30.052Z,84.50
2022-11-17T07:02:11.922Z,84.40
2022-11-17T07:05:53.756Z,84.40
2022-11-17T07:09:35.579Z,84.20
2022-11-17T07:13:17.403Z,83.90
2022-11-17T07:16:59.175Z,84.20
2022-11-17T07:20:40.963Z,84.10
2022-11-17T07:24:23.010Z,84.10
2022-11-17T07:28:04.938Z,84.00
2022-11-17T07:31:46.700Z,84.00
2022-11-17T07:35:28.594Z,83.90
2022-11-17T07:39:10.343Z,83.80
2022-11-17T07:42:52.136Z,83.80
2022-11-17T07:46:33.962Z,83.70
2022-11-17T07:50:16.238Z,83.80
2022-11-17T07:53:58.043Z,83.50
2022-11-17T07:57:39.875Z,83.70
2022-11-17T08:01:25.085Z,83.60
2022-11-17T08:05:07.286Z,83.50
2022-11-17T08:08:49.763Z,83.60
2022-11-17T08:12:31.637Z,83.60
2022-11-17T08:16:14.327Z,83.40
2022-11-17T08:19:56.122Z,83.50
2022-11-17T08:23:38.672Z,83.60
2022-11-17T08:27:20.435Z,83.50
2022-11-17T08:31:04.444Z,83.40
2022-11-17T08:34:46.263Z,83.30
2022-11-17T08:38:29.342Z,83.40
2022-11-17T08:42:11.381Z,83.40
2022-11-17T08:45:53.170Z,83.30
2022-11-17T08:49:34.993Z,83.10
2022-11-17T08:53:19.457Z,82.80
2022-11-17T08:57:01.258Z,82.50
2022-11-17T09:00:45.400Z,82.10
2022-11-17T09:04:27.348Z,82.20
2022-11-17T09:08:43.234Z,82.50
2022-11-17T09:12:12.639Z,82.10
2022-11-17T09:15:54.378Z,82.20
2022-11-17T09:19:36.267Z,82.10
2022-11-17T09:23:17.949Z,82.00
2022-11-17T09:26:59.910Z,82.00
2022-11-17T09:30:41.658Z,81.90
2022-11-17T09:34:23.694Z,82.00
2022-11-17T09:38:05.431Z,82.00
2022-11-17T09:41:49.587Z,81.70
2022-11-17T09:45:38.777Z,81.90
2022-11-17T09:49:30.422Z,81.80
2022-11-17T09:53:28.286Z,81.20
2022-11-17T09:57:21.427Z,81.30
2022-11-17T10:01:03.662Z,80.60
2022-11-17T10:04:45.464Z,80.70
2022-11-17T10:08:55.482Z,80.80
2022-11-17T10:12:47.685Z,80.40
2022-11-17T10:16:29.962Z,79.50
2022-11-17T10:20:18.767Z,80.20
2022-11-17T10:24:00.555Z,80.30
2022-11-17T10:27:53.052Z,79.90
2022-11-17T10:31:46.019Z,79.80
2022-11-17T10:35:31.805Z,79.40
2022-11-17T10:40:02.278Z,79.70
2022-11-17T10:44:12.168Z,79.30
2022-11-17T10:48:09.392Z,78.80
2022-11-17T10:52:05.810Z,79.10
2022-11-17T10:55:54.695Z,76.70
2022-11-17T10:59:46.294Z,79.70
2022-11-17T11:03:35.653Z,78.00
2022-11-17T11:07:22.642Z,79.30
2022-11-17T11:11:15.164Z,79.00
2022-11-17T11:14:59.859Z,79.30
2022-11-17T11:18:41.574Z,79.20
2022-11-17T11:22:34.233Z,79.10
2022-11-17T11:26:53.518Z,79.30
2022-11-17T11:30:40.994Z,77.70
2022-11-17T11:35:00.142Z,74.90
2022-11-17T11:39:02.557Z,75.30
2022-11-17T11:42:59.935Z,75.50
2022-11-17T11:47:19.218Z,74.90
2022-11-17T11:51:09.855Z,74.80
2022-11-17T11:54:58.796Z,72.70
2022-11-17T11:59:20.517Z,74.20
2022-11-17T12:03:13.272Z,73.50
2022-11-17T12:07:25.890Z,74.40
2022-11-17T12:11:31.006Z,71.40
2022-11-17T12:15:18.819Z,73.20
2022-11-17T12:19:00.758Z,72.00
2022-11-17T12:22:56.173Z,70.80
2022-11-17T12:26:38.417Z,69.80
2022-11-17T12:30:46.017Z,69.60
2022-11-17T12:34:35.877Z,68.10
2022-11-17T12:38:17.665Z,67.70
2022-11-17T12:42:06.646Z,67.80
2022-11-17T12:46:17.231Z,68.50
2022-11-17T12:50:28.854Z,67.40
2022-11-17T12:54:31.238Z,66.60
2022-11-17T12:58:26.938Z,65.50
2022-11-17T13:02:38.871Z,67.20
2022-11-17T13:06:35.046Z,65.60
2022-11-17T13:10:29.838Z,65.40
2022-11-17T13:14:17.159Z,63.90
2022-11-17T13:17:59.355Z,65.10
2022-11-17T13:21:41.077Z,64.70
2022-11-17T13:25:23.300Z,63.80
2022-11-17T13:29:11.267Z,63.30
2022-11-17T13:32:53.223Z,63.60
2022-11-17T13:36:35.116Z,62.80
2022-11-17T13:40:23.108Z,62.10
2022-11-17T13:44:06.732Z,61.90
2022-11-17T13:47:50.162Z,61.10
2022-11-17T13:51:39.414Z,62.10
2022-11-17T13:55:23.986Z,61.50
2022-11-17T13:59:23.359Z,61.80
2022-11-17T14:03:26.190Z,62.40
2022-11-17T14:07:12.061Z,63.20
2022-11-17T14:11:16.318Z,63.30
2022-11-17T14:14:58.145Z,63.30
2022-11-17T14:18:41.859Z,63.50
2022-11-17T14:22:31.400Z,63.90
2022-11-17T14:26:18.275Z,64.30
2022-11-17T14:30:00.039Z,64.70
2022-11-17T14:33:41.980Z,65.00
2022-11-17T14:37:24.798Z,65.20
2022-11-17T14:41:06.997Z,65.30
2022-11-17T14:44:48.754Z,65.50
2022-11-17T14:48:30.537Z,65.70
2022-11-17T14:52:12.238Z,65.80
2022-11-17T14:55:54.059Z,66.10
2022-11-17T14:59:35.826Z,66.40
2022-11-17T15:03:17.638Z,66.90
2022-11-17T15:06:59.650Z,67.50
2022-11-17T15:10:45.507Z,67.80
2022-11-17T15:14:27.314Z,68.30
2022-11-17T15:18:12.513Z,68.60
2022-11-17T15:21:54.253Z,69.10
2022-11-17T15:25:38.297Z,69.10
2022-11-17T15:29:20.540Z,68.90
2022-11-17T15:33:02.862Z,68.90
2022-11-17T15:36:44.666Z,69.00
2022-11-17T15:40:26.422Z,69.30
2022-11-17T15:44:08.220Z,69.50
2022-11-17T15:47:50.198Z,69.70
2022-11-17T15:51:32.749Z,69.80
2022-11-17T15:55:14.541Z,70.00
2022-11-17T15:59:05.125Z,70.20
2022-11-17T16:02:46.946Z,70.30
2022-11-17T16:06:29.649Z,70.60
2022-11-17T16:10:11.456Z,70.70
2022-11-17T16:13:54.574Z,70.70
2022-11-17T16:17:36.376Z,71.00
2022-11-17T16:21:18.807Z,71.20
2022-11-17T16:25:00.558Z,71.40
2022-11-17T16:28:42.819Z,71.60
2022-11-17T16:32:24.511Z,71.80
2022-11-17T16:36:06.984Z,72.00
2022-11-17T16:39:48.691Z,72.10
2022-11-17T16:43:30.637Z,73.10
2022-11-17T16:47:12.440Z,72.40
2022-11-17T16:50:54.164Z,72.40
2022-11-17T16:54:35.922Z,72.50
2022-11-17T16:58:18.131Z,72.50
2022-11-17T17:02:00.091Z,72.80
2022-11-17T17:05:41.899Z,72.90
2022-11-17T17:09:27.848Z,73.10
2022-11-17T17:13:10.153Z,73.20
2022-11-17T17:16:51.903Z,73.40
2022-11-17T17:20:34.338Z,73.30
2022-11-17T17:24:16.148Z,73.30
2022-11-17T17:27:57.877Z,73.50
2022-11-17T17:31:42.365Z,73.50
2022-11-17T17:35:24.370Z,73.50
2022-11-17T17:39:06.783Z,73.70
2022-11-17T17:42:48.501Z,73.60
2022-11-17T17:46:33.306Z,73.60
2022-11-17T17:50:15.403Z,73.50
2022-11-17T17:54:00.809Z,73.40
2022-11-17T17:57:42.720Z,73.30
2022-11-17T18:01:27.064Z,73.30
2022-11-17T18:05:09.082Z,73.20
2022-11-17T18:08:50.903Z,73.20
2022-11-17T18:12:32.613Z,73.10
2022-11-17T18:16:19.897Z,73.10
2022-11-17T18:20:01.785Z,73.10
2022-11-17T18:23:43.803Z,73.10
2022-11-17T18:27:26.371Z,73.20
2022-11-17T18:31:08.699Z,73.30
2022-11-17T18:34:50.482Z,73.30
2022-11-17T18:38:33.483Z,73.30
2022-11-17T18:42:15.265Z,73.40
2022-11-17T18:46:10.991Z,73.40
2022-11-17T18:49:53.282Z,73.50
2022-11-17T18:53:35.018Z,73.50
2022-11-17T18:57:18.346Z,73.50
2022-11-17T19:01:17.833Z,73.60
2022-11-17T19:04:59.742Z,73.80
2022-11-17T19:08:42.219Z,73.80
2022-11-17T19:12:24.040Z,73.80
2022-11-17T19:16:10.392Z,73.90
2022-11-17T19:19:52.154Z,73.90
2022-11-17T19:23:38.621Z,74.10
2022-11-17T19:27:20.353Z,74.20
2022-11-17T19:31:04.302Z,74.40
2022-11-17T19:34:46.721Z,74.40
2022-11-17T19:38:28.471Z,74.50
2022-11-17T19:42:10.279Z,74.60
2022-11-17T19:45:51.990Z,74.70
2022-11-17T19:49:33.704Z,74.70
2022-11-17T19:53:15.447Z,74.80
2022-11-17T19:56:57.218Z,74.90
2022-11-17T20:00:38.946Z,74.90
2022-11-17T20:04:20.697Z,74.90
2022-11-17T20:08:02.467Z,74.90
2022-11-17T20:11:44.211Z,74.90
2022-11-17T20:15:34.204Z,75.00
2022-11-17T20:19:16.871Z,75.00
2022-11-17T20:22:58.749Z,75.00
2022-11-17T20:26:42.403Z,75.00
2022-11-17T20:30:24.123Z,75.00
2022-11-17T20:34:06.014Z,75.00
2022-11-17T20:37:47.738Z,75.00
2022-11-17T20:41:30.155Z,74.90
2022-11-17T20:45:11.887Z,74.90
2022-11-17T20:48:53.745Z,74.90
2022-11-17T20:52:35.485Z,74.90
2022-11-17T20:59:57.626Z,74.90
2022-11-17T21:03:39.361Z,74.90
2022-11-17T21:07:21.322Z,74.90
2022-11-17T21:11:06.089Z,75.00
2022-11-17T21:14:48.885Z,75.00
2022-11-17T21:18:31.430Z,75.00
2022-11-17T21:22:13.205Z,75.00
2022-11-17T21:25:54.926Z,75.20
2022-11-17T21:29:36.695Z,75.20
2022-11-17T21:33:18.467Z,75.20
2022-11-17T21:37:00.428Z,75.20
2022-11-17T21:40:42.161Z,75.20
2022-11-17T21:44:23.941Z,75.20
2022-11-17T21:48:05.835Z,75.20
2022-11-17T21:51:47.561Z,75.30
2022-11-17T21:55:30.033Z,75.30
2022-11-17T21:59:13.337Z,75.30
2022-11-17T22:02:55.143Z,75.30
2022-11-17T22:06:38.309Z,75.30
2022-11-17T22:10:20.059Z,75.40
2022-11-17T22:14:13.144Z,75.30
2022-11-17T22:17:54.960Z,75.30
2022-11-17T22:21:37.694Z,75.20
2022-11-17T22:25:43.596Z,75.30
2022-11-17T22:29:22.591Z,75.20
2022-11-17T22:33:04.534Z,75.20
2022-11-17T22:36:46.407Z,75.10
2022-11-17T22:40:28.145Z,75.10
2022-11-17T22:44:13.856Z,75.10
2022-11-17T22:47:55.554Z,75.20
2022-11-17T22:51:56.235Z,75.20
2022-11-17T22:55:37.991Z,75.10
2022-11-17T22:59:22.142Z,75.10
2022-11-17T23:03:04.398Z,75.10
2022-11-17T23:06:46.495Z,75.10
2022-11-17T23:10:28.741Z,75.10
2022-11-17T23:14:12.883Z,75.20
2022-11-17T23:17:55.316Z,74.80
2022-11-17T23:21:37.056Z,74.90
2022-11-17T23:25:18.962Z,74.90
2022-11-17T23:29:00.822Z,74.90
2022-11-17T23:32:42.620Z,74.80
2022-11-17T23:36:25.025Z,74.50
2022-11-17T23:40:07.323Z,74.70
2022-11-17T23:43:54.023Z,74.60
2022-11-17T23:47:35.718Z,74.60
2022-11-17T23:51:20.107Z,74.40
2022-11-17T23:55:02.035Z,74.50
2022-11-17T23:58:44.240Z,74.40
